sensor_id;sensor_type;location;lat;lon;timestamp;P1;durP1;ratioP1;P2;durP2;ratioP2
21492;SDS011;10908;50.690;4.400;2022-11-20T00:01:15;69.78;;;30.27;;
21492;SDS011;10908;50.690;4.400;2022-11-20T00:03:43;66.47;;;28.98;;
21492;SDS011;10908;50.690;4.400;2022-11-20T00:06:13;69.60;;;28.67;;
21492;SDS011;10908;50.690;4.400;2022-11-20T00:08:41;68.22;;;30.20;;
21492;SDS011;10908;50.690;4.400;2022-11-20T00:11:12;65.03;;;29.23;;
21492;SDS011;10908;50.690;4.400;2022-11-20T00:13:38;76.18;;;29.95;;
21492;SDS011;10908;50.690;4.400;2022-11-20T00:16:04;64.10;;;28.88;;
21492;SDS011;10908;50.690;4.400;2022-11-20T00:18:35;66.57;;;29.52;;
21492;SDS011;10908;50.690;4.400;2022-11-20T00:21:01;66.80;;;29.88;;
21492;SDS011;10908;50.690;4.400;2022-11-20T00:23:28;67.85;;;30.35;;
21492;SDS011;10908;50.690;4.400;2022-11-20T00:25:55;65.75;;;29.17;;
21492;SDS011;10908;50.690;4.400;2022-11-20T00:28:20;64.72;;;29.65;;
21492;SDS011;10908;50.690;4.400;2022-11-20T00:30:46;65.78;;;28.92;;
21492;SDS011;10908;50.690;4.400;2022-11-20T00:33:12;73.68;;;30.55;;
21492;SDS011;10908;50.690;4.400;2022-11-20T00:35:38;74.32;;;31.05;;
21492;SDS011;10908;50.690;4.400;2022-11-20T00:38:03;67.45;;;29.55;;
21492;SDS011;10908;50.690;4.400;2022-11-20T00:40:29;76.38;;;31.35;;
21492;SDS011;10908;50.690;4.400;2022-11-20T00:42:54;71.75;;;30.38;;
21492;SDS011;10908;50.690;4.400;2022-11-20T00:45:20;73.65;;;30.70;;
21492;SDS011;10908;50.690;4.400;2022-11-20T00:47:46;82.55;;;30.08;;
21492;SDS011;10908;50.690;4.400;2022-11-20T00:50:11;71.47;;;29.25;;
21492;SDS011;10908;50.690;4.400;2022-11-20T00:52:37;81.78;;;29.13;;
21492;SDS011;10908;50.690;4.400;2022-11-20T00:55:02;70.40;;;29.40;;
21492;SDS011;10908;50.690;4.400;2022-11-20T00:57:29;78.70;;;29.70;;
21492;SDS011;10908;50.690;4.400;2022-11-20T00:59:55;71.75;;;29.23;;
21492;SDS011;10908;50.690;4.400;2022-11-20T01:02:20;75.13;;;30.48;;
21492;SDS011;10908;50.690;4.400;2022-11-20T01:04:46;95.13;;;31.60;;
21492;SDS011;10908;50.690;4.400;2022-11-20T01:07:11;82.00;;;29.90;;
21492;SDS011;10908;50.690;4.400;2022-11-20T01:09:37;77.68;;;31.48;;
21492;SDS011;10908;50.690;4.400;2022-11-20T01:12:03;78.35;;;29.70;;
21492;SDS011;10908;50.690;4.400;2022-11-20T01:14:29;85.10;;;31.30;;
21492;SDS011;10908;50.690;4.400;2022-11-20T01:16:54;71.43;;;28.83;;
21492;SDS011;10908;50.690;4.400;2022-11-20T01:19:21;92.53;;;31.92;;
21492;SDS011;10908;50.690;4.400;2022-11-20T01:21:48;75.57;;;29.98;;
21492;SDS011;10908;50.690;4.400;2022-11-20T01:24:17;84.47;;;29.45;;
21492;SDS011;10908;50.690;4.400;2022-11-20T01:26:44;72.30;;;29.90;;
21492;SDS011;10908;50.690;4.400;2022-11-20T01:29:20;73.47;;;29.48;;
21492;SDS011;10908;50.690;4.400;2022-11-20T01:31:47;74.22;;;29.85;;
21492;SDS011;10908;50.690;4.400;2022-11-20T01:34:14;83.82;;;31.98;;
21492;SDS011;10908;50.690;4.400;2022-11-20T01:36:41;76.80;;;29.98;;
21492;SDS011;10908;50.690;4.400;2022-11-20T01:39:26;86.28;;;30.08;;
21492;SDS011;10908;50.690;4.400;2022-11-20T01:41:53;108.75;;;31.95;;
21492;SDS011;10908;50.690;4.400;2022-11-20T01:44:49;84.20;;;31.75;;
21492;SDS011;10908;50.690;4.400;2022-11-20T01:49:52;93.95;;;30.70;;
21492;SDS011;10908;50.690;4.400;2022-11-20T01:52:29;67.30;;;29.52;;
21492;SDS011;10908;50.690;4.400;2022-11-20T01:55:20;86.57;;;30.20;;
21492;SDS011;10908;50.690;4.400;2022-11-20T01:57:51;74.95;;;28.65;;
21492;SDS011;10908;50.690;4.400;2022-11-20T02:00:18;65.38;;;25.83;;
21492;SDS011;10908;50.690;4.400;2022-11-20T02:02:50;67.70;;;27.10;;
21492;SDS011;10908;50.690;4.400;2022-11-20T02:07:48;61.03;;;25.20;;
21492;SDS011;10908;50.690;4.400;2022-11-20T02:10:15;58.63;;;24.83;;
21492;SDS011;10908;50.690;4.400;2022-11-20T02:12:40;60.72;;;24.95;;
21492;SDS011;10908;50.690;4.400;2022-11-20T02:15:25;62.35;;;25.05;;
21492;SDS011;10908;50.690;4.400;2022-11-20T02:17:50;64.63;;;25.58;;
21492;SDS011;10908;50.690;4.400;2022-11-20T02:20:16;60.35;;;24.90;;
21492;SDS011;10908;50.690;4.400;2022-11-20T02:22:46;56.20;;;24.23;;
21492;SDS011;10908;50.690;4.400;2022-11-20T02:25:19;56.50;;;23.95;;
21492;SDS011;10908;50.690;4.400;2022-11-20T02:27:45;56.15;;;23.90;;
21492;SDS011;10908;50.690;4.400;2022-11-20T02:30:11;53.75;;;22.20;;
21492;SDS011;10908;50.690;4.400;2022-11-20T02:32:38;59.08;;;23.73;;
21492;SDS011;10908;50.690;4.400;2022-11-20T02:35:39;52.20;;;22.90;;
21492;SDS011;10908;50.690;4.400;2022-11-20T02:37:57;53.90;;;22.38;;
21492;SDS011;10908;50.690;4.400;2022-11-20T02:40:26;51.53;;;23.33;;
21492;SDS011;10908;50.690;4.400;2022-11-20T02:42:55;55.65;;;23.55;;
21492;SDS011;10908;50.690;4.400;2022-11-20T02:45:21;58.58;;;24.00;;
21492;SDS011;10908;50.690;4.400;2022-11-20T02:47:48;52.30;;;22.35;;
21492;SDS011;10908;50.690;4.400;2022-11-20T02:50:14;49.70;;;21.33;;
21492;SDS011;10908;50.690;4.400;2022-11-20T02:52:40;50.38;;;20.77;;
21492;SDS011;10908;50.690;4.400;2022-11-20T02:55:06;47.08;;;20.08;;
21492;SDS011;10908;50.690;4.400;2022-11-20T02:57:31;45.60;;;20.42;;
21492;SDS011;10908;50.690;4.400;2022-11-20T02:59:57;48.15;;;20.17;;
21492;SDS011;10908;50.690;4.400;2022-11-20T03:02:23;39.97;;;17.85;;
21492;SDS011;10908;50.690;4.400;2022-11-20T03:04:48;42.03;;;17.52;;
21492;SDS011;10908;50.690;4.400;2022-11-20T03:07:14;42.42;;;18.23;;
21492;SDS011;10908;50.690;4.400;2022-11-20T03:09:39;40.20;;;18.45;;
21492;SDS011;10908;50.690;4.400;2022-11-20T03:12:05;39.75;;;17.95;;
21492;SDS011;10908;50.690;4.400;2022-11-20T03:14:31;38.38;;;18.02;;
21492;SDS011;10908;50.690;4.400;2022-11-20T03:16:56;42.95;;;18.38;;
21492;SDS011;10908;50.690;4.400;2022-11-20T03:19:22;41.03;;;18.05;;
21492;SDS011;10908;50.690;4.400;2022-11-20T03:21:48;48.78;;;18.73;;
21492;SDS011;10908;50.690;4.400;2022-11-20T03:24:14;39.92;;;18.33;;
21492;SDS011;10908;50.690;4.400;2022-11-20T03:26:40;42.95;;;18.35;;
21492;SDS011;10908;50.690;4.400;2022-11-20T03:29:06;44.35;;;18.83;;
21492;SDS011;10908;50.690;4.400;2022-11-20T03:31:36;44.95;;;18.58;;
21492;SDS011;10908;50.690;4.400;2022-11-20T03:34:07;46.50;;;19.35;;
21492;SDS011;10908;50.690;4.400;2022-11-20T03:36:35;44.95;;;19.20;;
21492;SDS011;10908;50.690;4.400;2022-11-20T03:39:06;41.15;;;18.85;;
21492;SDS011;10908;50.690;4.400;2022-11-20T03:41:35;44.30;;;19.65;;
21492;SDS011;10908;50.690;4.400;2022-11-20T03:44:03;43.95;;;18.65;;
21492;SDS011;10908;50.690;4.400;2022-11-20T03:46:31;43.38;;;18.58;;
21492;SDS011;10908;50.690;4.400;2022-11-20T03:48:57;41.22;;;19.10;;
21492;SDS011;10908;50.690;4.400;2022-11-20T03:51:24;42.25;;;19.23;;
21492;SDS011;10908;50.690;4.400;2022-11-20T03:53:51;47.45;;;19.83;;
21492;SDS011;10908;50.690;4.400;2022-11-20T03:56:20;48.13;;;19.75;;
21492;SDS011;10908;50.690;4.400;2022-11-20T03:58:48;49.22;;;20.35;;
21492;SDS011;10908;50.690;4.400;2022-11-20T04:01:15;49.67;;;20.60;;
21492;SDS011;10908;50.690;4.400;2022-11-20T04:03:42;52.67;;;20.85;;
21492;SDS011;10908;50.690;4.400;2022-11-20T04:08:36;47.42;;;21.23;;
21492;SDS011;10908;50.690;4.400;2022-11-20T04:11:08;49.47;;;21.67;;
21492;SDS011;10908;50.690;4.400;2022-11-20T04:13:39;53.65;;;21.02;;
21492;SDS011;10908;50.690;4.400;2022-11-20T04:16:05;56.53;;;21.42;;
21492;SDS011;10908;50.690;4.400;2022-11-20T04:18:32;60.80;;;23.17;;
21492;SDS011;10908;50.690;4.400;2022-11-20T04:20:58;58.92;;;23.65;;
21492;SDS011;10908;50.690;4.400;2022-11-20T04:23:24;59.92;;;23.02;;
21492;SDS011;10908;50.690;4.400;2022-11-20T04:25:50;58.15;;;22.38;;
21492;SDS011;10908;50.690;4.400;2022-11-20T04:28:16;66.10;;;23.73;;
21492;SDS011;10908;50.690;4.400;2022-11-20T04:30:42;67.53;;;24.00;;
21492;SDS011;10908;50.690;4.400;2022-11-20T04:33:08;68.07;;;23.52;;
21492;SDS011;10908;50.690;4.400;2022-11-20T04:35:34;64.55;;;23.58;;
21492;SDS011;10908;50.690;4.400;2022-11-20T04:38:00;73.85;;;25.23;;
21492;SDS011;10908;50.690;4.400;2022-11-20T04:40:27;77.32;;;25.27;;
21492;SDS011;10908;50.690;4.400;2022-11-20T04:42:53;77.18;;;24.70;;
21492;SDS011;10908;50.690;4.400;2022-11-20T04:45:19;77.50;;;24.25;;
21492;SDS011;10908;50.690;4.400;2022-11-20T04:47:45;80.68;;;24.35;;
21492;SDS011;10908;50.690;4.400;2022-11-20T04:50:10;84.07;;;26.52;;
21492;SDS011;10908;50.690;4.400;2022-11-20T04:52:36;75.85;;;25.63;;
21492;SDS011;10908;50.690;4.400;2022-11-20T04:55:02;86.50;;;26.00;;
21492;SDS011;10908;50.690;4.400;2022-11-20T04:57:27;76.45;;;25.40;;
21492;SDS011;10908;50.690;4.400;2022-11-20T04:59:53;83.95;;;28.10;;
21492;SDS011;10908;50.690;4.400;2022-11-20T05:02:19;89.65;;;27.13;;
21492;SDS011;10908;50.690;4.400;2022-11-20T05:04:44;81.28;;;26.27;;
21492;SDS011;10908;50.690;4.400;2022-11-20T05:07:10;77.30;;;26.13;;
21492;SDS011;10908;50.690;4.400;2022-11-20T05:09:36;81.82;;;26.58;;
21492;SDS011;10908;50.690;4.400;2022-11-20T05:12:01;83.47;;;25.45;;
21492;SDS011;10908;50.690;4.400;2022-11-20T05:14:27;74.47;;;25.48;;
21492;SDS011;10908;50.690;4.400;2022-11-20T05:16:52;82.65;;;27.00;;
21492;SDS011;10908;50.690;4.400;2022-11-20T05:19:18;80.25;;;26.85;;
21492;SDS011;10908;50.690;4.400;2022-11-20T05:21:44;86.40;;;27.02;;
21492;SDS011;10908;50.690;4.400;2022-11-20T05:24:09;76.47;;;25.80;;
21492;SDS011;10908;50.690;4.400;2022-11-20T05:26:35;73.80;;;24.88;;
21492;SDS011;10908;50.690;4.400;2022-11-20T05:29:00;64.80;;;22.80;;
21492;SDS011;10908;50.690;4.400;2022-11-20T05:31:27;68.75;;;24.08;;
21492;SDS011;10908;50.690;4.400;2022-11-20T05:33:52;65.93;;;22.70;;
21492;SDS011;10908;50.690;4.400;2022-11-20T05:36:19;67.00;;;24.10;;
21492;SDS011;10908;50.690;4.400;2022-11-20T05:38:44;64.15;;;23.35;;
21492;SDS011;10908;50.690;4.400;2022-11-20T05:41:11;62.85;;;23.90;;
21492;SDS011;10908;50.690;4.400;2022-11-20T05:43:43;58.80;;;22.80;;
21492;SDS011;10908;50.690;4.400;2022-11-20T05:46:11;62.85;;;22.13;;
21492;SDS011;10908;50.690;4.400;2022-11-20T05:48:39;61.80;;;23.13;;
21492;SDS011;10908;50.690;4.400;2022-11-20T05:51:06;60.38;;;22.15;;
21492;SDS011;10908;50.690;4.400;2022-11-20T05:53:33;60.53;;;23.48;;
21492;SDS011;10908;50.690;4.400;2022-11-20T05:56:01;59.53;;;22.52;;
21492;SDS011;10908;50.690;4.400;2022-11-20T05:58:27;61.92;;;22.85;;
21492;SDS011;10908;50.690;4.400;2022-11-20T06:00:53;62.45;;;23.17;;
21492;SDS011;10908;50.690;4.400;2022-11-20T06:03:19;61.10;;;22.40;;
21492;SDS011;10908;50.690;4.400;2022-11-20T06:05:45;66.40;;;23.50;;
21492;SDS011;10908;50.690;4.400;2022-11-20T06:08:10;63.45;;;22.33;;
21492;SDS011;10908;50.690;4.400;2022-11-20T06:10:36;61.15;;;21.83;;
21492;SDS011;10908;50.690;4.400;2022-11-20T06:13:02;59.05;;;22.67;;
21492;SDS011;10908;50.690;4.400;2022-11-20T06:15:27;64.40;;;22.98;;
21492;SDS011;10908;50.690;4.400;2022-11-20T06:17:53;64.45;;;23.95;;
21492;SDS011;10908;50.690;4.400;2022-11-20T06:20:20;59.45;;;23.38;;
21492;SDS011;10908;50.690;4.400;2022-11-20T06:22:46;59.88;;;22.70;;
21492;SDS011;10908;50.690;4.400;2022-11-20T06:25:12;58.38;;;22.17;;
21492;SDS011;10908;50.690;4.400;2022-11-20T06:27:38;59.08;;;23.50;;
21492;SDS011;10908;50.690;4.400;2022-11-20T06:30:04;55.45;;;22.05;;
21492;SDS011;10908;50.690;4.400;2022-11-20T06:32:30;57.90;;;22.35;;
21492;SDS011;10908;50.690;4.400;2022-11-20T06:34:57;58.15;;;22.80;;
21492;SDS011;10908;50.690;4.400;2022-11-20T06:37:23;56.10;;;22.33;;
21492;SDS011;10908;50.690;4.400;2022-11-20T06:39:48;56.63;;;21.90;;
21492;SDS011;10908;50.690;4.400;2022-11-20T06:42:14;59.33;;;22.85;;
21492;SDS011;10908;50.690;4.400;2022-11-20T06:44:39;55.33;;;21.92;;
21492;SDS011;10908;50.690;4.400;2022-11-20T06:47:05;56.22;;;22.80;;
21492;SDS011;10908;50.690;4.400;2022-11-20T06:49:30;62.75;;;22.67;;
21492;SDS011;10908;50.690;4.400;2022-11-20T06:51:56;58.55;;;22.90;;
21492;SDS011;10908;50.690;4.400;2022-11-20T06:54:22;61.03;;;22.27;;
21492;SDS011;10908;50.690;4.400;2022-11-20T06:56:48;63.08;;;24.10;;
21492;SDS011;10908;50.690;4.400;2022-11-20T06:59:14;59.05;;;23.63;;
21492;SDS011;10908;50.690;4.400;2022-11-20T07:01:39;63.17;;;23.10;;
21492;SDS011;10908;50.690;4.400;2022-11-20T07:04:05;59.60;;;22.55;;
21492;SDS011;10908;50.690;4.400;2022-11-20T07:06:31;62.40;;;23.33;;
21492;SDS011;10908;50.690;4.400;2022-11-20T07:08:57;54.45;;;21.08;;
21492;SDS011;10908;50.690;4.400;2022-11-20T07:11:23;55.55;;;21.13;;
21492;SDS011;10908;50.690;4.400;2022-11-20T07:13:48;56.90;;;21.13;;
21492;SDS011;10908;50.690;4.400;2022-11-20T07:16:14;66.00;;;21.60;;
21492;SDS011;10908;50.690;4.400;2022-11-20T07:18:40;58.22;;;22.83;;
21492;SDS011;10908;50.690;4.400;2022-11-20T07:21:07;55.95;;;21.17;;
21492;SDS011;10908;50.690;4.400;2022-11-20T07:23:34;54.97;;;20.25;;
21492;SDS011;10908;50.690;4.400;2022-11-20T07:26:07;56.15;;;20.38;;
21492;SDS011;10908;50.690;4.400;2022-11-20T07:28:34;51.28;;;19.25;;
21492;SDS011;10908;50.690;4.400;2022-11-20T07:31:00;56.47;;;20.05;;
21492;SDS011;10908;50.690;4.400;2022-11-20T07:33:26;55.22;;;18.75;;
21492;SDS011;10908;50.690;4.400;2022-11-20T07:35:51;55.95;;;19.05;;
21492;SDS011;10908;50.690;4.400;2022-11-20T07:38:17;52.88;;;19.83;;
21492;SDS011;10908;50.690;4.400;2022-11-20T07:40:43;58.35;;;19.67;;
21492;SDS011;10908;50.690;4.400;2022-11-20T07:43:08;61.40;;;21.02;;
21492;SDS011;10908;50.690;4.400;2022-11-20T07:45:34;56.65;;;19.92;;
21492;SDS011;10908;50.690;4.400;2022-11-20T07:48:00;52.70;;;19.75;;
21492;SDS011;10908;50.690;4.400;2022-11-20T07:50:25;58.30;;;20.15;;
21492;SDS011;10908;50.690;4.400;2022-11-20T07:52:51;54.17;;;21.08;;
21492;SDS011;10908;50.690;4.400;2022-11-20T07:55:17;63.25;;;20.70;;
21492;SDS011;10908;50.690;4.400;2022-11-20T07:57:43;63.17;;;21.35;;
21492;SDS011;10908;50.690;4.400;2022-11-20T08:00:09;60.95;;;19.98;;
21492;SDS011;10908;50.690;4.400;2022-11-20T08:02:39;60.03;;;20.27;;
21492;SDS011;10908;50.690;4.400;2022-11-20T08:05:06;58.55;;;21.08;;
21492;SDS011;10908;50.690;4.400;2022-11-20T08:07:40;55.08;;;19.42;;
21492;SDS011;10908;50.690;4.400;2022-11-20T08:10:08;50.90;;;18.83;;
21492;SDS011;10908;50.690;4.400;2022-11-20T08:12:35;54.35;;;19.05;;
21492;SDS011;10908;50.690;4.400;2022-11-20T08:15:19;55.17;;;19.15;;
21492;SDS011;10908;50.690;4.400;2022-11-20T08:17:45;46.53;;;18.30;;
21492;SDS011;10908;50.690;4.400;2022-11-20T08:20:11;59.55;;;19.05;;
21492;SDS011;10908;50.690;4.400;2022-11-20T08:22:36;56.20;;;19.88;;
21492;SDS011;10908;50.690;4.400;2022-11-20T08:25:02;52.72;;;18.83;;
21492;SDS011;10908;50.690;4.400;2022-11-20T08:27:28;49.85;;;18.80;;
21492;SDS011;10908;50.690;4.400;2022-11-20T08:29:53;42.20;;;17.83;;
21492;SDS011;10908;50.690;4.400;2022-11-20T08:32:19;45.63;;;17.30;;
21492;SDS011;10908;50.690;4.400;2022-11-20T08:34:45;40.55;;;17.38;;
21492;SDS011;10908;50.690;4.400;2022-11-20T08:37:11;41.72;;;16.65;;
21492;SDS011;10908;50.690;4.400;2022-11-20T08:39:37;40.35;;;16.05;;
21492;SDS011;10908;50.690;4.400;2022-11-20T08:42:06;40.78;;;16.65;;
21492;SDS011;10908;50.690;4.400;2022-11-20T08:44:32;37.60;;;15.98;;
21492;SDS011;10908;50.690;4.400;2022-11-20T08:46:58;36.30;;;16.27;;
21492;SDS011;10908;50.690;4.400;2022-11-20T08:49:23;35.80;;;15.82;;
21492;SDS011;10908;50.690;4.400;2022-11-20T08:51:49;34.45;;;15.85;;
21492;SDS011;10908;50.690;4.400;2022-11-20T08:54:18;35.63;;;15.50;;
21492;SDS011;10908;50.690;4.400;2022-11-20T08:56:46;35.25;;;15.10;;
21492;SDS011;10908;50.690;4.400;2022-11-20T08:59:12;39.13;;;15.57;;
21492;SDS011;10908;50.690;4.400;2022-11-20T09:01:38;33.55;;;15.32;;
21492;SDS011;10908;50.690;4.400;2022-11-20T09:04:04;31.05;;;14.63;;
21492;SDS011;10908;50.690;4.400;2022-11-20T09:06:30;33.55;;;14.85;;
21492;SDS011;10908;50.690;4.400;2022-11-20T09:08:55;33.13;;;15.20;;
21492;SDS011;10908;50.690;4.400;2022-11-20T09:11:22;29.88;;;13.60;;
21492;SDS011;10908;50.690;4.400;2022-11-20T09:13:48;29.70;;;14.18;;
21492;SDS011;10908;50.690;4.400;2022-11-20T09:16:14;31.63;;;14.18;;
21492;SDS011;10908;50.690;4.400;2022-11-20T09:18:41;31.48;;;14.02;;
21492;SDS011;10908;50.690;4.400;2022-11-20T09:21:09;29.60;;;13.23;;
21492;SDS011;10908;50.690;4.400;2022-11-20T09:23:36;27.33;;;11.38;;
21492;SDS011;10908;50.690;4.400;2022-11-20T09:26:10;26.08;;;11.55;;
21492;SDS011;10908;50.690;4.400;2022-11-20T09:28:38;21.80;;;10.00;;
21492;SDS011;10908;50.690;4.400;2022-11-20T09:31:07;22.50;;;10.23;;
21492;SDS011;10908;50.690;4.400;2022-11-20T09:33:34;21.95;;;9.10;;
21492;SDS011;10908;50.690;4.400;2022-11-20T09:36:00;21.73;;;9.02;;
21492;SDS011;10908;50.690;4.400;2022-11-20T09:38:27;18.08;;;8.73;;
21492;SDS011;10908;50.690;4.400;2022-11-20T09:51:41;16.75;;;7.10;;
21492;SDS011;10908;50.690;4.400;2022-11-20T09:54:31;15.35;;;6.90;;
21492;SDS011;10908;50.690;4.400;2022-11-20T09:57:03;15.13;;;6.00;;
21492;SDS011;10908;50.690;4.400;2022-11-20T09:59:39;12.98;;;5.78;;
21492;SDS011;10908;50.690;4.400;2022-11-20T10:02:15;16.67;;;5.65;;
21492;SDS011;10908;50.690;4.400;2022-11-20T10:05:18;13.15;;;5.15;;
21492;SDS011;10908;50.690;4.400;2022-11-20T10:07:48;16.98;;;5.25;;
21492;SDS011;10908;50.690;4.400;2022-11-20T10:10:27;11.18;;;4.53;;
21492;SDS011;10908;50.690;4.400;2022-11-20T10:15:36;15.35;;;4.68;;
21492;SDS011;10908;50.690;4.400;2022-11-20T10:18:20;10.80;;;4.32;;
21492;SDS011;10908;50.690;4.400;2022-11-20T10:31:50;11.57;;;3.58;;
21492;SDS011;10908;50.690;4.400;2022-11-20T10:37:29;8.77;;;3.25;;
21492;SDS011;10908;50.690;4.400;2022-11-20T10:40:02;11.05;;;3.85;;
21492;SDS011;10908;50.690;4.400;2022-11-20T10:42:48;9.40;;;3.08;;
21492;SDS011;10908;50.690;4.400;2022-11-20T10:47:49;13.45;;;3.42;;
21492;SDS011;10908;50.690;4.400;2022-11-20T10:50:18;8.10;;;2.92;;
21492;SDS011;10908;50.690;4.400;2022-11-20T10:53:04;7.93;;;2.83;;
21492;SDS011;10908;50.690;4.400;2022-11-20T10:55:43;8.27;;;2.70;;
21492;SDS011;10908;50.690;4.400;2022-11-20T10:58:14;8.68;;;2.72;;
21492;SDS011;10908;50.690;4.400;2022-11-20T11:01:02;10.80;;;2.88;;
21492;SDS011;10908;50.690;4.400;2022-11-20T11:03:30;9.45;;;2.58;;
21492;SDS011;10908;50.690;4.400;2022-11-20T11:09:02;6.38;;;2.40;;
21492;SDS011;10908;50.690;4.400;2022-11-20T11:11:50;9.05;;;2.80;;
21492;SDS011;10908;50.690;4.400;2022-11-20T11:14:16;7.97;;;2.45;;
21492;SDS011;10908;50.690;4.400;2022-11-20T11:16:55;7.75;;;2.55;;
21492;SDS011;10908;50.690;4.400;2022-11-20T11:19:22;6.97;;;2.00;;
21492;SDS011;10908;50.690;4.400;2022-11-20T11:21:57;7.57;;;2.28;;
21492;SDS011;10908;50.690;4.400;2022-11-20T11:26:57;8.23;;;2.35;;
21492;SDS011;10908;50.690;4.400;2022-11-20T11:29:24;9.63;;;2.33;;
21492;SDS011;10908;50.690;4.400;2022-11-20T11:32:07;10.23;;;2.42;;
21492;SDS011;10908;50.690;4.400;2022-11-20T11:34:37;7.95;;;2.30;;
21492;SDS011;10908;50.690;4.400;2022-11-20T11:37:03;8.23;;;2.65;;
21492;SDS011;10908;50.690;4.400;2022-11-20T11:39:31;5.65;;;2.33;;
21492;SDS011;10908;50.690;4.400;2022-11-20T11:41:58;9.30;;;2.78;;
21492;SDS011;10908;50.690;4.400;2022-11-20T11:44:32;7.63;;;2.60;;
21492;SDS011;10908;50.690;4.400;2022-11-20T11:47:22;7.72;;;2.63;;
21492;SDS011;10908;50.690;4.400;2022-11-20T11:50:28;8.68;;;2.63;;
21492;SDS011;10908;50.690;4.400;2022-11-20T11:57:54;11.95;;;2.42;;
21492;SDS011;10908;50.690;4.400;2022-11-20T12:00:45;8.10;;;2.53;;
21492;SDS011;10908;50.690;4.400;2022-11-20T12:03:37;11.15;;;2.40;;
21492;SDS011;10908;50.690;4.400;2022-11-20T12:06:13;7.20;;;2.25;;
21492;SDS011;10908;50.690;4.400;2022-11-20T12:08:48;8.05;;;2.30;;
21492;SDS011;10908;50.690;4.400;2022-11-20T12:11:24;11.43;;;2.53;;
21492;SDS011;10908;50.690;4.400;2022-11-20T12:14:17;9.00;;;2.70;;
21492;SDS011;10908;50.690;4.400;2022-11-20T12:16:48;8.07;;;2.40;;
21492;SDS011;10908;50.690;4.400;2022-11-20T12:19:15;8.98;;;2.53;;
21492;SDS011;10908;50.690;4.400;2022-11-20T12:24:15;6.70;;;2.70;;
21492;SDS011;10908;50.690;4.400;2022-11-20T12:30:01;12.85;;;3.00;;
21492;SDS011;10908;50.690;4.400;2022-11-20T12:43:36;8.93;;;2.83;;
21492;SDS011;10908;50.690;4.400;2022-11-20T12:46:31;7.63;;;3.15;;
21492;SDS011;10908;50.690;4.400;2022-11-20T13:03:01;9.02;;;3.50;;
21492;SDS011;10908;50.690;4.400;2022-11-20T13:08:03;11.95;;;4.00;;
21492;SDS011;10908;50.690;4.400;2022-11-20T13:10:45;9.93;;;3.25;;
21492;SDS011;10908;50.690;4.400;2022-11-20T13:15:54;9.63;;;3.65;;
21492;SDS011;10908;50.690;4.400;2022-11-20T13:18:33;10.32;;;3.70;;
21492;SDS011;10908;50.690;4.400;2022-11-20T13:21:12;10.48;;;3.90;;
21492;SDS011;10908;50.690;4.400;2022-11-20T13:26:43;10.48;;;4.03;;
21492;SDS011;10908;50.690;4.400;2022-11-20T13:29:16;8.15;;;3.58;;
21492;SDS011;10908;50.690;4.400;2022-11-20T13:31:44;8.50;;;3.17;;
21492;SDS011;10908;50.690;4.400;2022-11-20T13:34:12;9.25;;;3.35;;
21492;SDS011;10908;50.690;4.400;2022-11-20T13:36:58;8.27;;;3.42;;
21492;SDS011;10908;50.690;4.400;2022-11-20T13:39:35;7.78;;;2.85;;
21492;SDS011;10908;50.690;4.400;2022-11-20T13:44:39;7.20;;;2.88;;
21492;SDS011;10908;50.690;4.400;2022-11-20T13:47:24;6.63;;;2.55;;
21492;SDS011;10908;50.690;4.400;2022-11-20T13:49:52;7.25;;;3.22;;
21492;SDS011;10908;50.690;4.400;2022-11-20T14:02:48;7.30;;;2.40;;
21492;SDS011;10908;50.690;4.400;2022-11-20T14:05:31;6.47;;;2.40;;
21492;SDS011;10908;50.690;4.400;2022-11-20T14:08:02;6.63;;;2.10;;
21492;SDS011;10908;50.690;4.400;2022-11-20T14:10:30;4.80;;;1.80;;
21492;SDS011;10908;50.690;4.400;2022-11-20T14:12:56;5.25;;;2.13;;
21492;SDS011;10908;50.690;4.400;2022-11-20T14:15:32;4.70;;;1.70;;
21492;SDS011;10908;50.690;4.400;2022-11-20T14:17:59;4.22;;;1.63;;
21492;SDS011;10908;50.690;4.400;2022-11-20T14:20:40;4.68;;;1.55;;
21492;SDS011;10908;50.690;4.400;2022-11-20T14:23:09;4.07;;;1.67;;
21492;SDS011;10908;50.690;4.400;2022-11-20T14:25:35;4.88;;;2.08;;
21492;SDS011;10908;50.690;4.400;2022-11-20T14:28:02;4.70;;;2.13;;
21492;SDS011;10908;50.690;4.400;2022-11-20T14:30:35;6.25;;;2.60;;
21492;SDS011;10908;50.690;4.400;2022-11-20T14:33:11;8.30;;;3.72;;
21492;SDS011;10908;50.690;4.400;2022-11-20T14:35:44;4.90;;;2.20;;
21492;SDS011;10908;50.690;4.400;2022-11-20T14:38:17;5.80;;;2.10;;
21492;SDS011;10908;50.690;4.400;2022-11-20T14:40:46;5.70;;;2.70;;
21492;SDS011;10908;50.690;4.400;2022-11-20T14:43:30;7.72;;;2.78;;
21492;SDS011;10908;50.690;4.400;2022-11-20T14:48:28;6.95;;;3.55;;
21492;SDS011;10908;50.690;4.400;2022-11-20T14:51:08;6.07;;;2.58;;
21492;SDS011;10908;50.690;4.400;2022-11-20T14:53:35;8.32;;;3.40;;
21492;SDS011;10908;50.690;4.400;2022-11-20T14:56:02;6.78;;;2.60;;
21492;SDS011;10908;50.690;4.400;2022-11-20T14:58:32;7.78;;;3.03;;
21492;SDS011;10908;50.690;4.400;2022-11-20T15:00:59;8.30;;;3.50;;
21492;SDS011;10908;50.690;4.400;2022-11-20T15:03:35;8.60;;;2.65;;
21492;SDS011;10908;50.690;4.400;2022-11-20T15:06:02;7.97;;;3.15;;
21492;SDS011;10908;50.690;4.400;2022-11-20T15:08:28;8.55;;;3.47;;
21492;SDS011;10908;50.690;4.400;2022-11-20T15:10:55;7.68;;;3.47;;
21492;SDS011;10908;50.690;4.400;2022-11-20T15:13:34;10.85;;;3.33;;
21492;SDS011;10908;50.690;4.400;2022-11-20T15:16:03;9.15;;;2.78;;
21492;SDS011;10908;50.690;4.400;2022-11-20T15:18:39;8.13;;;3.20;;
21492;SDS011;10908;50.690;4.400;2022-11-20T15:21:27;7.43;;;3.30;;
21492;SDS011;10908;50.690;4.400;2022-11-20T15:23:54;7.28;;;2.97;;
21492;SDS011;10908;50.690;4.400;2022-11-20T15:26:21;11.25;;;4.57;;
21492;SDS011;10908;50.690;4.400;2022-11-20T15:28:50;7.80;;;3.20;;
21492;SDS011;10908;50.690;4.400;2022-11-20T15:31:18;7.45;;;2.88;;
21492;SDS011;10908;50.690;4.400;2022-11-20T15:33:45;10.30;;;3.08;;
21492;SDS011;10908;50.690;4.400;2022-11-20T15:36:11;9.25;;;3.03;;
21492;SDS011;10908;50.690;4.400;2022-11-20T15:38:37;11.43;;;5.13;;
21492;SDS011;10908;50.690;4.400;2022-11-20T15:41:03;10.45;;;3.78;;
21492;SDS011;10908;50.690;4.400;2022-11-20T15:56:13;10.80;;;3.92;;
21492;SDS011;10908;50.690;4.400;2022-11-20T15:58:40;9.02;;;4.15;;
21492;SDS011;10908;50.690;4.400;2022-11-20T16:01:10;13.73;;;3.80;;
21492;SDS011;10908;50.690;4.400;2022-11-20T16:03:37;11.65;;;3.20;;
21492;SDS011;10908;50.690;4.400;2022-11-20T16:06:03;9.68;;;3.20;;
21492;SDS011;10908;50.690;4.400;2022-11-20T16:08:29;13.50;;;3.15;;
21492;SDS011;10908;50.690;4.400;2022-11-20T16:10:54;10.25;;;3.30;;
21492;SDS011;10908;50.690;4.400;2022-11-20T16:13:20;14.80;;;3.42;;
21492;SDS011;10908;50.690;4.400;2022-11-20T16:16:05;11.95;;;3.28;;
21492;SDS011;10908;50.690;4.400;2022-11-20T16:18:35;12.27;;;4.13;;
21492;SDS011;10908;50.690;4.400;2022-11-20T16:21:01;11.45;;;3.67;;
21492;SDS011;10908;50.690;4.400;2022-11-20T16:23:26;10.70;;;3.58;;
21492;SDS011;10908;50.690;4.400;2022-11-20T16:25:52;10.75;;;3.50;;
21492;SDS011;10908;50.690;4.400;2022-11-20T16:28:18;10.88;;;3.50;;
21492;SDS011;10908;50.690;4.400;2022-11-20T16:30:44;18.75;;;4.03;;
21492;SDS011;10908;50.690;4.400;2022-11-20T16:33:11;12.35;;;3.83;;
21492;SDS011;10908;50.690;4.400;2022-11-20T16:35:41;10.50;;;3.50;;